Time;durP1;ratioP1;P1;durP2;ratioP2;P2;SDS_P1;SDS_P2;PMS_P1;PMS_P2;Temp;Humidity;BMP_temperature;BMP_pressure;BME280_temperature;BME280_humidity;BME280_pressure;Samples;Min_cycle;Max_cycle;Signal;HPM_P1;HPM_P2
2023/07/17 00:02:20;;;;;;;1.83;1.15;;;22.80;57.10;;;;;;5074403;28;20110;-79
2023/07/17 00:04:46;;;;;;;2.00;1.30;;;22.80;57.10;;;;;;5058988;28;20071;-78
2023/07/17 00:07:12;;;;;;;1.55;1.10;;;22.80;57.20;;;;;;5041315;28;20032;-79
2023/07/17 00:09:38;;;;;;;2.40;1.20;;;22.70;57.20;;;;;;5057994;28;20032;-79
2023/07/17 00:12:04;;;;;;;1.95;1.23;;;22.70;57.30;;;;;;5074411;28;20040;-79
2023/07/17 00:14:30;;;;;;;1.02;0.93;;;22.70;57.30;;;;;;5075818;28;20033;-79
2023/07/17 00:16:56;;;;;;;2.10;1.15;;;22.70;57.30;;;;;;5075799;28;20025;-81
2023/07/17 00:19:22;;;;;;;1.58;1.00;;;22.70;57.40;;;;;;5076541;28;20056;-79
2023/07/17 00:21:47;;;;;;;1.65;1.10;;;22.70;57.50;;;;;;5041118;28;20033;-79
2023/07/17 00:24:13;;;;;;;1.33;1.10;;;22.60;57.50;;;;;;5057535;28;20056;-81
2023/07/17 00:26:39;;;;;;;2.03;1.30;;;22.60;57.50;;;;;;5041777;28;20032;-79
2023/07/17 00:29:25;;;;;;;1.45;1.20;;;22.60;57.50;;;;;;5057765;28;20381;-79
2023/07/17 00:31:52;;;;;;;2.35;1.30;;;22.60;58.30;;;;;;5040875;28;20115;-79
2023/07/17 00:34:18;;;;;;;1.98;1.23;;;22.60;57.70;;;;;;5040672;28;20039;-78
2023/07/17 00:36:45;;;;;;;1.83;1.13;;;22.50;57.70;;;;;;5040737;28;20032;-79
2023/07/17 00:39:11;;;;;;;1.83;1.52;;;22.50;57.80;;;;;;5040857;28;20032;-79
2023/07/17 00:41:37;;;;;;;1.75;1.15;;;22.50;57.80;;;;;;5057540;28;20032;-79
2023/07/17 00:44:03;;;;;;;2.38;1.20;;;22.50;58.50;;;;;;5075058;28;20036;-79
2023/07/17 00:46:31;;;;;;;2.22;1.20;;;22.50;57.90;;;;;;5040318;28;20396;-79
2023/07/17 00:48:57;;;;;;;1.55;1.17;;;22.40;57.90;;;;;;5056951;28;20111;-80
2023/07/17 00:51:24;;;;;;;1.77;1.15;;;22.40;57.90;;;;;;5073453;28;20051;-79
2023/07/17 00:53:50;;;;;;;3.30;1.20;;;22.40;57.90;;;;;;5008158;28;20590;-79
2023/07/17 00:56:17;;;;;;;2.25;1.17;;;22.40;58.00;;;;;;5075077;28;20111;-80
2023/07/17 00:58:43;;;;;;;2.25;1.38;;;22.40;58.10;;;;;;5041146;28;20067;-80
2023/07/17 01:01:09;;;;;;;1.95;1.20;;;22.40;58.10;;;;;;5074617;28;20068;-79
2023/07/17 01:03:35;;;;;;;1.83;1.10;;;22.30;58.10;;;;;;5040253;28;20127;-81
2023/07/17 01:06:01;;;;;;;1.67;1.10;;;22.30;58.10;;;;;;5055937;28;20033;-79
2023/07/17 01:08:27;;;;;;;2.55;1.40;;;22.30;58.10;;;;;;5040570;28;20035;-80
2023/07/17 01:10:54;;;;;;;1.88;1.33;;;22.20;58.20;;;;;;5056872;28;20032;-79
2023/07/17 01:13:20;;;;;;;1.80;1.30;;;22.20;58.20;;;;;;5040401;28;20035;-78
2023/07/17 01:15:45;;;;;;;3.13;1.48;;;22.30;59.00;;;;;;5039982;28;20473;-79
2023/07/17 01:18:11;;;;;;;2.22;1.40;;;22.20;58.30;;;;;;5057454;28;20421;-79
2023/07/17 01:20:37;;;;;;;2.75;1.60;;;22.20;58.40;;;;;;5056797;28;20062;-79
2023/07/17 01:23:03;;;;;;;2.08;1.30;;;22.20;58.40;;;;;;5040664;28;20090;-79
2023/07/17 01:25:29;;;;;;;1.85;1.20;;;22.20;58.50;;;;;;5040052;28;20032;-82
2023/07/17 01:27:55;;;;;;;1.70;1.20;;;22.10;58.40;;;;;;5056662;28;20393;-80
2023/07/17 01:30:21;;;;;;;1.40;1.17;;;22.10;58.50;;;;;;5039756;28;20063;-79
2023/07/17 01:32:47;;;;;;;1.70;1.20;;;22.00;58.40;;;;;;5073496;28;20060;-79
2023/07/17 01:35:13;;;;;;;2.53;1.30;;;22.00;58.40;;;;;;5039929;28;20052;-79
2023/07/17 01:37:39;;;;;;;1.50;1.20;;;22.00;58.50;;;;;;5055874;28;20499;-79
2023/07/17 01:40:07;;;;;;;1.85;1.40;;;22.00;58.50;;;;;;5023640;28;20072;-79
2023/07/17 01:42:33;;;;;;;1.70;1.20;;;22.00;58.60;;;;;;5055806;28;20127;-81
2023/07/17 01:44:59;;;;;;;1.45;1.20;;;21.90;58.60;;;;;;5056379;28;20064;-79
2023/07/17 01:47:27;;;;;;;1.50;1.13;;;21.90;58.60;;;;;;5056433;28;20036;-80
2023/07/17 01:49:53;;;;;;;1.10;1.00;;;21.80;58.60;;;;;;5039499;28;20123;-79
2023/07/17 01:52:20;;;;;;;2.25;1.50;;;21.80;58.60;;;;;;5055909;28;20053;-79
2023/07/17 01:54:47;;;;;;;1.42;1.30;;;21.80;58.70;;;;;;5023492;28;20043;-79
2023/07/17 01:57:14;;;;;;;1.45;1.10;;;21.80;58.70;;;;;;5039460;28;20108;-78
2023/07/17 01:59:39;;;;;;;2.00;1.33;;;21.70;58.70;;;;;;5055945;28;20127;-79
2023/07/17 02:02:06;;;;;;;2.70;1.40;;;21.80;58.80;;;;;;5040086;28;20363;-78
2023/07/17 02:04:31;;;;;;;1.38;1.20;;;21.70;58.80;;;;;;5055619;28;20033;-78
2023/07/17 02:06:57;;;;;;;1.98;1.30;;;21.70;58.70;;;;;;5055805;28;20039;-79
2023/07/17 02:09:26;;;;;;;2.22;1.67;;;21.70;58.80;;;;;;5056975;28;20524;-79
2023/07/17 02:11:52;;;;;;;2.63;1.60;;;21.70;58.80;;;;;;5039792;28;20120;-80
2023/07/17 02:14:17;;;;;;;1.17;1.08;;;21.60;58.90;;;;;;5055916;28;20066;-79
2023/07/17 02:16:43;;;;;;;1.75;1.27;;;21.60;58.90;;;;;;5056290;28;20058;-79
2023/07/17 02:19:09;;;;;;;1.60;1.27;;;21.60;58.90;;;;;;5056428;28;20516;-79
2023/07/17 02:21:34;;;;;;;1.65;1.23;;;21.60;58.90;;;;;;5055594;28;20085;-81
2023/07/17 02:24:00;;;;;;;2.00;1.45;;;21.50;58.90;;;;;;5055556;28;20032;-79
2023/07/17 02:26:26;;;;;;;2.20;1.48;;;21.50;58.90;;;;;;5038998;28;20031;-79
2023/07/17 02:28:52;;;;;;;1.60;1.17;;;21.50;59.00;;;;;;5038828;28;20032;-80
2023/07/17 02:31:17;;;;;;;1.88;1.20;;;21.50;59.00;;;;;;5055390;28;20029;-81
2023/07/17 02:33:43;;;;;;;1.92;1.40;;;21.40;59.00;;;;;;5055469;28;20174;-78
2023/07/17 02:36:09;;;;;;;2.30;1.50;;;21.40;59.00;;;;;;5039289;28;20078;-79
2023/07/17 02:38:35;;;;;;;1.83;1.35;;;21.40;59.10;;;;;;5055855;28;20032;-79
2023/07/17 02:41:01;;;;;;;2.67;1.50;;;21.40;59.80;;;;;;5039040;28;20036;-79
2023/07/17 02:43:27;;;;;;;1.85;1.40;;;21.40;59.20;;;;;;5055598;28;20481;-79
2023/07/17 02:45:53;;;;;;;1.65;1.33;;;21.30;59.20;;;;;;5039540;28;20031;-79
2023/07/17 02:48:19;;;;;;;2.47;1.50;;;21.30;59.20;;;;;;5038639;28;20028;-78
2023/07/17 02:50:44;;;;;;;1.60;1.30;;;21.30;59.20;;;;;;5055431;28;20036;-79
2023/07/17 02:53:10;;;;;;;1.75;1.38;;;21.30;59.20;;;;;;5073875;28;20515;-79
2023/07/17 02:55:37;;;;;;;1.67;1.25;;;21.30;59.20;;;;;;5038655;28;20064;-80
2023/07/17 02:58:03;;;;;;;2.10;1.42;;;21.20;59.30;;;;;;5039566;28;20488;-79
2023/07/17 03:00:28;;;;;;;2.22;1.33;;;21.20;59.30;;;;;;5073221;28;20097;-79
2023/07/17 03:02:54;;;;;;;2.38;1.42;;;21.20;60.00;;;;;;5055094;28;20042;-79
2023/07/17 03:05:20;;;;;;;2.65;1.65;;;21.20;59.40;;;;;;5038882;28;20033;-80
2023/07/17 03:07:49;;;;;;;2.88;1.60;;;21.10;59.40;;;;;;5055857;28;20047;-80
2023/07/17 03:10:15;;;;;;;2.05;1.40;;;21.10;59.50;;;;;;5055106;28;20029;-78
2023/07/17 03:12:41;;;;;;;2.78;1.58;;;21.10;59.50;;;;;;5054632;28;20040;-79
2023/07/17 03:15:08;;;;;;;2.30;1.60;;;21.10;59.50;;;;;;5006176;28;20127;-79
2023/07/17 03:17:34;;;;;;;2.08;1.30;;;21.10;59.60;;;;;;5072789;28;20044;-79
2023/07/17 03:20:04;;;;;;;1.45;1.20;;;21.00;59.50;;;;;;5055318;28;20047;-78
2023/07/17 03:22:30;;;;;;;1.35;1.20;;;21.00;59.60;;;;;;5038682;28;20036;-78
2023/07/17 03:24:55;;;;;;;1.55;1.20;;;21.00;59.60;;;;;;5038483;28;20507;-78
2023/07/17 03:27:21;;;;;;;2.65;1.40;;;21.00;59.60;;;;;;5039208;28;20102;-79
2023/07/17 03:29:48;;;;;;;2.22;1.50;;;20.90;59.60;;;;;;5061207;28;20115;-78
2023/07/17 03:32:13;;;;;;;1.77;1.40;;;20.90;59.70;;;;;;5064397;28;20048;-79
2023/07/17 03:34:39;;;;;;;1.88;1.30;;;20.90;59.70;;;;;;5045743;28;20476;-78
2023/07/17 03:37:05;;;;;;;2.42;1.42;;;20.90;59.70;;;;;;5059518;28;20119;-77
2023/07/17 03:39:31;;;;;;;2.10;1.33;;;20.80;59.70;;;;;;5009705;28;20140;-78
2023/07/17 03:41:57;;;;;;;2.97;1.48;;;20.80;59.70;;;;;;5042182;28;20472;-81
2023/07/17 03:44:22;;;;;;;1.38;1.23;;;20.80;59.70;;;;;;5041581;28;20033;-79
2023/07/17 03:46:49;;;;;;;1.60;1.45;;;20.80;59.80;;;;;;5045653;28;20042;-77
2023/07/17 03:49:16;;;;;;;2.05;1.50;;;20.80;59.80;;;;;;5043564;28;20029;-78
2023/07/17 03:51:42;;;;;;;1.98;1.33;;;20.80;59.80;;;;;;5042451;28;20072;-81
2023/07/17 03:54:09;;;;;;;2.28;1.38;;;20.70;59.90;;;;;;5059089;28;20464;-78
2023/07/17 03:56:39;;;;;;;1.58;1.10;;;20.70;59.90;;;;;;5058525;28;20039;-79
2023/07/17 03:59:05;;;;;;;2.08;1.42;;;20.70;60.00;;;;;;5058802;28;20404;-78
2023/07/17 04:01:31;;;;;;;2.20;1.40;;;20.70;60.00;;;;;;5058276;28;20035;-78
2023/07/17 04:03:57;;;;;;;2.47;1.65;;;20.70;60.00;;;;;;5042437;28;20043;-78
2023/07/17 04:06:24;;;;;;;2.22;1.60;;;20.60;60.00;;;;;;5058189;28;20029;-79
2023/07/17 04:08:50;;;;;;;1.90;1.35;;;20.60;60.00;;;;;;5025027;28;20028;-78
2023/07/17 04:11:16;;;;;;;2.55;1.40;;;20.60;60.00;;;;;;5041573;28;20127;-78
2023/07/17 04:13:41;;;;;;;2.08;1.40;;;20.60;60.00;;;;;;5075896;28;20404;-78
2023/07/17 04:16:07;;;;;;;1.33;1.23;;;20.50;60.00;;;;;;5041177;28;20025;-79
2023/07/17 04:18:34;;;;;;;2.10;1.30;;;20.50;60.00;;;;;;5058086;28;20123;-79
2023/07/17 04:21:00;;;;;;;1.73;1.40;;;20.50;60.10;;;;;;5058466;28;20037;-78
2023/07/17 04:23:26;;;;;;;2.90;1.35;;;20.50;60.10;;;;;;5058737;28;20044;-78
2023/07/17 04:25:56;;;;;;;1.55;1.33;;;20.40;60.00;;;;;;5057926;28;20040;-79
2023/07/17 04:28:23;;;;;;;2.92;1.55;;;20.50;60.10;;;;;;5074615;28;20064;-81
2023/07/17 04:30:49;;;;;;;2.58;1.40;;;20.40;60.10;;;;;;5041042;28;20035;-79
2023/07/17 04:33:15;;;;;;;1.77;1.30;;;20.40;60.10;;;;;;5041218;28;20123;-79
2023/07/17 04:35:43;;;;;;;1.90;1.50;;;20.40;60.10;;;;;;5041150;28;20103;-78
2023/07/17 04:38:08;;;;;;;1.95;1.30;;;20.40;60.20;;;;;;5057436;28;20042;-79
2023/07/17 04:40:34;;;;;;;3.05;1.67;;;20.40;60.20;;;;;;5007607;28;20461;-79
2023/07/17 04:43:01;;;;;;;1.83;1.30;;;20.40;60.20;;;;;;5057250;28;20037;-80
2023/07/17 04:45:28;;;;;;;1.50;1.27;;;20.40;60.20;;;;;;5008076;28;20028;-80
2023/07/17 04:47:55;;;;;;;4.63;1.73;;;20.40;60.30;;;;;;5057382;28;20024;-80
2023/07/17 04:50:28;;;;;;;2.10;1.38;;;20.30;60.20;;;;;;5057342;28;20032;-78
2023/07/17 04:52:56;;;;;;;1.95;1.38;;;20.30;60.30;;;;;;5056793;28;20064;-78
2023/07/17 04:55:22;;;;;;;2.05;1.48;;;20.30;60.30;;;;;;5041304;28;20527;-79
2023/07/17 04:57:49;;;;;;;3.00;1.58;;;20.30;60.30;;;;;;5040649;28;20036;-82
2023/07/17 05:00:16;;;;;;;1.83;1.30;;;20.30;60.30;;;;;;5057325;28;20503;-80
2023/07/17 05:02:42;;;;;;;1.73;1.48;;;20.30;60.40;;;;;;5041263;28;20037;-79
2023/07/17 05:05:09;;;;;;;2.53;1.42;;;20.20;60.30;;;;;;5056928;28;20450;-80
2023/07/17 05:07:35;;;;;;;2.67;1.52;;;20.20;60.30;;;;;;5056480;28;20032;-80
2023/07/17 05:10:01;;;;;;;2.65;1.60;;;20.20;60.30;;;;;;5057101;28;20024;-80
2023/07/17 05:12:28;;;;;;;2.97;1.42;;;20.20;60.40;;;;;;5056251;28;20374;-81
2023/07/17 05:14:54;;;;;;;1.83;1.48;;;20.20;60.40;;;;;;5023322;28;20031;-81
2023/07/17 05:17:20;;;;;;;2.28;1.50;;;20.20;60.40;;;;;;5040479;28;20081;-82
2023/07/17 05:19:46;;;;;;;2.25;1.67;;;20.20;60.40;;;;;;5024346;28;20032;-80
2023/07/17 05:22:12;;;;;;;2.35;1.42;;;20.20;60.40;;;;;;5040077;28;20036;-83
2023/07/17 05:24:39;;;;;;;1.58;1.35;;;20.20;60.40;;;;;;5056659;28;20469;-81
2023/07/17 05:27:05;;;;;;;1.80;1.20;;;20.10;60.40;;;;;;5056057;28;20040;-80
2023/07/17 05:29:32;;;;;;;2.10;1.35;;;20.20;60.50;;;;;;5039809;28;20131;-81
2023/07/17 05:31:59;;;;;;;2.08;1.38;;;20.10;60.40;;;;;;5039825;28;20058;-80
2023/07/17 05:34:24;;;;;;;2.95;1.58;;;20.10;60.40;;;;;;5039412;28;20044;-82
2023/07/17 05:36:50;;;;;;;2.30;1.42;;;20.10;60.40;;;;;;5039542;28;20033;-81
2023/07/17 05:39:16;;;;;;;2.20;1.52;;;20.10;60.40;;;;;;5056924;28;20037;-81
2023/07/17 05:41:42;;;;;;;1.75;1.52;;;20.10;60.40;;;;;;5039462;28;20040;-81
2023/07/17 05:44:08;;;;;;;2.88;1.80;;;20.10;60.40;;;;;;5056147;28;20037;-80
2023/07/17 05:46:34;;;;;;;3.95;1.80;;;20.10;60.40;;;;;;5039902;28;20479;-80
2023/07/17 05:49:00;;;;;;;2.17;1.58;;;20.10;60.40;;;;;;5056085;28;20028;-81
2023/07/17 05:51:26;;;;;;;2.83;1.48;;;20.10;60.40;;;;;;5039747;28;20037;-81
2023/07/17 05:53:52;;;;;;;2.65;1.65;;;20.10;60.50;;;;;;5023591;28;20036;-81
2023/07/17 05:56:18;;;;;;;2.35;1.50;;;20.10;60.50;;;;;;5055960;28;20385;-81
2023/07/17 05:58:44;;;;;;;2.60;1.65;;;20.10;60.50;;;;;;5023104;28;20039;-80
2023/07/17 06:01:10;;;;;;;2.22;1.52;;;20.10;60.50;;;;;;5039258;28;20037;-80
2023/07/17 06:03:36;;;;;;;1.88;1.48;;;20.10;60.60;;;;;;5056296;28;20067;-81
2023/07/17 06:06:03;;;;;;;2.50;1.70;;;20.10;60.50;;;;;;5056320;28;20373;-81
2023/07/17 06:08:28;;;;;;;2.58;1.80;;;20.10;60.50;;;;;;5039268;28;20035;-80
2023/07/17 06:10:54;;;;;;;1.88;1.60;;;20.10;60.50;;;;;;5022857;28;20020;-82
2023/07/17 06:13:20;;;;;;;3.05;1.70;;;20.10;60.50;;;;;;5006372;28;20048;-81
2023/07/17 06:15:46;;;;;;;2.80;2.13;;;20.10;60.50;;;;;;5023654;28;20068;-80
2023/07/17 06:18:12;;;;;;;3.30;2.00;;;20.10;60.60;;;;;;5055938;28;20028;-79
2023/07/17 06:20:39;;;;;;;2.38;1.77;;;20.10;60.60;;;;;;5023538;28;20106;-83
2023/07/17 06:23:05;;;;;;;2.60;1.85;;;20.10;60.60;;;;;;5055653;28;20025;-81
2023/07/17 06:25:30;;;;;;;3.40;2.00;;;20.10;60.60;;;;;;5039302;28;20029;-81
2023/07/17 06:27:56;;;;;;;2.63;1.75;;;20.00;60.50;;;;;;5038957;28;20032;-81
2023/07/17 06:30:22;;;;;;;2.95;2.00;;;20.00;60.60;;;;;;5038799;28;20032;-82
2023/07/17 06:32:48;;;;;;;2.72;1.80;;;20.10;60.60;;;;;;5073589;28;20032;-83
2023/07/17 06:35:13;;;;;;;2.90;1.75;;;20.10;60.60;;;;;;5055360;28;20032;-82
2023/07/17 06:37:39;;;;;;;2.95;1.80;;;20.00;60.60;;;;;;5039089;28;20056;-82
2023/07/17 06:40:06;;;;;;;3.10;2.10;;;20.10;60.60;;;;;;5038902;28;20032;-82
2023/07/17 06:42:33;;;;;;;3.13;1.92;;;20.10;60.60;;;;;;5039577;28;20548;-83
2023/07/17 06:44:59;;;;;;;4.97;2.45;;;20.10;60.60;;;;;;5006455;28;20087;-82
2023/07/17 06:47:26;;;;;;;3.28;2.00;;;20.10;60.60;;;;;;5055489;28;20041;-82
2023/07/17 06:49:51;;;;;;;6.75;2.30;;;20.10;60.60;;;;;;5055679;28;20037;-82
2023/07/17 06:52:17;;;;;;;3.65;2.00;;;20.10;60.60;;;;;;5035314;28;20049;-82
2023/07/17 06:54:43;;;;;;;3.35;2.17;;;20.10;60.60;;;;;;5035090;28;20458;-79
2023/07/17 06:57:09;;;;;;;3.58;2.20;;;20.10;60.60;;;;;;5051550;28;20079;-81
2023/07/17 06:59:34;;;;;;;4.65;2.53;;;20.10;60.60;;;;;;5052327;28;20037;-82
2023/07/17 07:02:00;;;;;;;3.92;2.15;;;20.10;60.50;;;;;;5035200;28;20040;-82
2023/07/17 07:04:26;;;;;;;3.80;2.30;;;20.10;60.50;;;;;;5020669;28;20026;-84
2023/07/17 07:06:52;;;;;;;2.85;1.95;;;20.20;60.60;;;;;;5058053;28;20036;-85
2023/07/17 07:09:18;;;;;;;3.15;1.73;;;20.10;60.60;;;;;;5006921;28;20045;-85
2023/07/17 07:11:47;;;;;;;4.57;2.33;;;20.20;60.60;;;;;;5039252;28;20398;-85
2023/07/17 07:14:16;;;;;;;3.70;2.20;;;20.20;60.60;;;;;;5039962;28;20025;-88
2023/07/17 07:16:42;;;;;;;3.15;2.15;;;20.20;60.60;;;;;;5056431;28;20044;-85
2023/07/17 07:19:13;;;;;;;3.60;2.22;;;20.20;60.60;;;;;;5023156;28;20159;-86
2023/07/17 07:21:40;;;;;;;5.18;2.50;;;20.20;60.60;;;;;;5056478;28;20043;-87
2023/07/17 07:24:06;;;;;;;3.13;2.03;;;20.30;60.60;;;;;;5055610;28;20477;-80
2023/07/17 07:26:32;;;;;;;3.65;2.33;;;20.30;60.60;;;;;;5056505;28;20039;-80
2023/07/17 07:28:58;;;;;;;4.32;2.38;;;20.30;60.60;;;;;;5056348;28;20050;-80
2023/07/17 07:31:24;;;;;;;3.75;2.30;;;20.30;60.60;;;;;;5055358;28;20034;-81
2023/07/17 07:33:50;;;;;;;3.85;2.28;;;20.30;60.60;;;;;;5039529;28;20517;-82
2023/07/17 07:36:16;;;;;;;4.85;2.53;;;20.40;60.60;;;;;;5038369;28;20045;-80
2023/07/17 07:38:44;;;;;;;3.33;2.10;;;20.40;60.60;;;;;;5055778;28;20543;-80
2023/07/17 07:41:10;;;;;;;3.80;2.30;;;20.40;60.60;;;;;;5038980;28;20060;-81
2023/07/17 07:43:39;;;;;;;2.88;2.00;;;20.40;60.50;;;;;;5039596;28;20075;-80
2023/07/17 07:46:05;;;;;;;4.43;2.55;;;20.50;60.60;;;;;;5054983;28;20056;-82
2023/07/17 07:48:31;;;;;;;4.35;2.33;;;20.50;60.50;;;;;;5055507;28;20025;-81
2023/07/17 07:50:57;;;;;;;4.30;2.47;;;20.50;60.50;;;;;;5022041;28;20470;-80
2023/07/17 07:53:25;;;;;;;2.88;2.05;;;20.60;60.50;;;;;;5038235;28;20095;-81
2023/07/17 07:55:51;;;;;;;3.63;2.30;;;20.60;60.50;;;;;;5007197;28;20033;-79
2023/07/17 07:58:17;;;;;;;4.40;2.25;;;20.70;60.40;;;;;;5057000;28;20385;-81
2023/07/17 08:00:43;;;;;;;3.53;2.17;;;20.70;60.40;;;;;;5043850;28;20036;-83
2023/07/17 08:03:12;;;;;;;3.97;2.45;;;20.80;61.00;;;;;;5047524;28;20047;-80
2023/07/17 08:05:37;;;;;;;5.13;2.55;;;20.80;60.30;;;;;;5045915;28;20031;-79
2023/07/17 08:08:03;;;;;;;2.72;1.95;;;20.90;60.20;;;;;;5051532;28;20116;-84
2023/07/17 08:10:29;;;;;;;3.92;2.30;;;20.90;60.20;;;;;;5061126;28;20025;-81
2023/07/17 08:12:55;;;;;;;3.75;2.00;;;21.00;60.10;;;;;;5039604;28;20082;-81
2023/07/17 08:15:21;;;;;;;3.60;2.25;;;21.00;60.10;;;;;;5039126;28;20127;-83
2023/07/17 08:17:47;;;;;;;3.50;2.22;;;21.00;60.00;;;;;;5056183;28;20025;-81
2023/07/17 08:20:13;;;;;;;4.20;2.55;;;21.10;60.00;;;;;;5055432;28;20558;-80
2023/07/17 08:22:39;;;;;;;3.45;2.17;;;21.10;59.80;;;;;;5038219;28;20121;-82
2023/07/17 08:25:05;;;;;;;4.43;2.25;;;21.20;59.80;;;;;;5021752;28;20033;-82
2023/07/17 08:27:31;;;;;;;4.10;2.58;;;21.30;59.70;;;;;;5054438;28;20040;-81
2023/07/17 08:29:57;;;;;;;3.95;2.17;;;21.40;59.60;;;;;;5037739;28;20033;-81
2023/07/17 08:32:23;;;;;;;2.63;1.95;;;21.40;59.50;;;;;;5053956;28;20041;-81
2023/07/17 08:34:49;;;;;;;3.70;2.28;;;21.50;59.50;;;;;;5037412;28;20029;-81
2023/07/17 08:37:16;;;;;;;2.60;1.85;;;21.60;59.40;;;;;;5037200;28;20472;-81
2023/07/17 08:39:42;;;;;;;3.28;2.28;;;21.70;59.30;;;;;;5053964;28;20033;-81
2023/07/17 08:42:09;;;;;;;3.97;2.45;;;21.70;59.10;;;;;;5037615;28;20083;-81
2023/07/17 08:44:35;;;;;;;3.42;2.13;;;21.80;59.10;;;;;;5054034;28;20037;-80
2023/07/17 08:47:05;;;;;;;3.95;2.20;;;21.90;59.00;;;;;;5037416;28;20033;-80
2023/07/17 08:49:33;;;;;;;4.00;2.20;;;21.90;58.90;;;;;;5055759;28;20033;-81
2023/07/17 08:51:59;;;;;;;4.47;2.15;;;22.00;58.80;;;;;;5039749;28;20078;-80
2023/07/17 08:54:29;;;;;;;3.20;2.08;;;22.10;58.70;;;;;;5040828;28;20036;-82
2023/07/17 08:56:56;;;;;;;3.42;2.10;;;22.20;58.70;;;;;;5057246;28;20042;-81
2023/07/17 08:59:22;;;;;;;4.05;2.17;;;22.20;58.60;;;;;;5057174;28;20040;-81
2023/07/17 09:01:52;;;;;;;2.90;1.95;;;22.30;58.60;;;;;;5057049;28;20036;-80
2023/07/17 09:04:18;;;;;;;2.97;1.95;;;22.40;58.60;;;;;;5040300;28;20032;-81
2023/07/17 09:06:44;;;;;;;3.78;2.13;;;22.50;58.50;;;;;;5040652;28;20029;-81
2023/07/17 09:09:10;;;;;;;2.83;1.98;;;22.50;58.40;;;;;;5041100;28;20353;-81
2023/07/17 09:11:36;;;;;;;2.60;1.90;;;22.60;58.30;;;;;;5056786;28;20063;-81
2023/07/17 09:14:07;;;;;;;3.35;2.25;;;22.60;58.20;;;;;;5056799;28;20037;-81
2023/07/17 09:16:34;;;;;;;2.75;1.67;;;22.70;58.10;;;;;;5056538;28;20029;-81
2023/07/17 09:19:00;;;;;;;3.45;2.00;;;22.80;58.00;;;;;;5056891;28;20028;-82
2023/07/17 09:21:26;;;;;;;2.08;1.75;;;22.90;58.00;;;;;;5075221;28;20034;-82
2023/07/17 09:23:54;;;;;;;3.22;2.08;;;23.00;57.90;;;;;;5040411;28;20029;-81
2023/07/17 09:26:24;;;;;;;2.58;1.60;;;23.10;57.90;;;;;;5039351;28;20029;-81
2023/07/17 09:28:57;;;;;;;3.10;1.88;;;23.10;57.80;;;;;;5039916;28;20021;-83
2023/07/17 09:31:28;;;;;;;3.30;2.20;;;23.20;57.70;;;;;;5056616;28;20024;-81
2023/07/17 09:33:56;;;;;;;3.47;2.08;;;23.30;57.60;;;;;;5039613;28;20032;-81
2023/07/17 09:36:22;;;;;;;3.60;1.90;;;23.30;57.50;;;;;;5056307;28;20127;-81
2023/07/17 09:39:03;;;;;;;2.35;1.70;;;23.40;57.50;;;;;;5039728;28;20477;-81
2023/07/17 09:41:28;;;;;;;3.22;2.10;;;23.40;57.50;;;;;;5056602;28;20039;-80
2023/07/17 09:43:58;;;;;;;3.03;1.90;;;23.50;57.40;;;;;;5056198;28;20520;-81
2023/07/17 09:46:26;;;;;;;3.67;1.92;;;23.50;57.40;;;;;;5055955;28;20369;-80
2023/07/17 09:48:53;;;;;;;3.35;2.10;;;23.60;57.30;;;;;;5056040;28;20028;-81
2023/07/17 09:51:23;;;;;;;3.08;1.92;;;23.70;57.30;;;;;;5056104;28;20024;-80
2023/07/17 09:53:50;;;;;;;3.55;1.83;;;23.70;57.20;;;;;;5073385;28;20416;-80
2023/07/17 09:56:18;;;;;;;3.38;1.92;;;23.80;57.10;;;;;;5056049;28;20415;-80
2023/07/17 09:58:50;;;;;;;3.97;2.20;;;23.90;57.10;;;;;;5056024;28;20025;-81
2023/07/17 10:01:20;;;;;;;2.65;1.73;;;24.00;57.10;;;;;;5039479;28;20025;-80
2023/07/17 10:03:50;;;;;;;3.00;1.77;;;24.00;57.00;;;;;;5056221;28;20036;-83
2023/07/17 10:06:20;;;;;;;1.80;1.50;;;24.10;56.90;;;;;;5056957;28;20024;-92
2023/07/17 10:08:52;;;;;;;2.95;1.77;;;24.20;56.90;;;;;;5056737;28;20530;-86
2023/07/17 10:11:19;;;;;;;2.90;1.75;;;24.20;56.90;;;;;;5040381;28;20439;-86
2023/07/17 10:13:47;;;;;;;2.30;1.58;;;24.30;56.80;;;;;;5039730;28;20424;-86
2023/07/17 10:16:16;;;;;;;1.95;1.42;;;24.30;56.70;;;;;;5056827;28;20035;-93
2023/07/17 10:19:00;;;;;;;2.72;1.70;;;24.40;56.70;;;;;;5056958;28;20108;-88
2023/07/17 10:21:25;;;;;;;3.13;1.65;;;24.50;56.80;;;;;;5057107;28;20044;-88
2023/07/17 10:24:02;;;;;;;3.15;1.70;;;24.50;56.60;;;;;;5040455;28;20025;-87
2023/07/17 10:26:29;;;;;;;3.15;1.70;;;24.60;56.60;;;;;;5040606;28;20115;-89
2023/07/17 10:28:55;;;;;;;2.75;1.80;;;24.60;56.50;;;;;;5056684;28;20044;-88
2023/07/17 10:31:23;;;;;;;2.95;1.70;;;24.70;56.50;;;;;;5024042;28;20024;-89
2023/07/17 10:33:51;;;;;;;2.58;1.55;;;24.70;56.50;;;;;;5056746;28;20043;-88
2023/07/17 10:36:19;;;;;;;2.75;1.80;;;24.80;56.50;;;;;;5056361;28;20047;-90
2023/07/17 10:38:53;;;;;;;1.70;1.40;;;24.80;56.40;;;;;;5056663;28;20527;-94
2023/07/17 10:41:19;;;;;;;2.63;1.35;;;24.90;56.40;;;;;;5056578;28;20119;-86
2023/07/17 10:44:03;;;;;;;2.70;1.80;;;24.90;56.30;;;;;;5055906;28;20043;-86
2023/07/17 10:46:32;;;;;;;1.92;1.42;;;25.00;56.30;;;;;;5055757;28;20028;-86
2023/07/17 10:49:15;;;;;;;2.03;1.50;;;25.10;56.20;;;;;;5073505;28;20025;-84
2023/07/17 10:51:46;;;;;;;2.55;1.67;;;25.10;56.10;;;;;;5073332;28;20025;-83
2023/07/17 10:54:13;;;;;;;2.40;1.50;;;25.20;56.10;;;;;;5072733;28;20049;-84
2023/07/17 10:56:39;;;;;;;2.90;1.98;;;25.30;56.00;;;;;;5038968;28;20033;-87
2023/07/17 10:59:05;;;;;;;1.92;1.60;;;25.30;55.90;;;;;;5072910;28;20090;-88
2023/07/17 11:01:31;;;;;;;3.13;1.73;;;25.40;55.90;;;;;;5056030;28;20503;-85
2023/07/17 11:03:57;;;;;;;1.92;1.40;;;25.40;55.80;;;;;;5039788;28;20473;-87
2023/07/17 11:06:26;;;;;;;1.38;1.20;;;25.40;55.70;;;;;;5039860;28;20435;-86
2023/07/17 11:08:53;;;;;;;2.25;1.40;;;25.50;55.80;;;;;;5073735;28;20469;-85
2023/07/17 11:11:19;;;;;;;2.63;1.65;;;25.50;55.70;;;;;;5073523;28;20020;-85
2023/07/17 11:13:54;;;;;;;2.60;1.35;;;25.50;55.60;;;;;;5073963;28;20131;-84
2023/07/17 11:16:21;;;;;;;1.58;1.30;;;25.60;55.80;;;;;;5039624;28;20552;-85
2023/07/17 11:18:49;;;;;;;1.75;1.40;;;25.50;55.60;;;;;;5055728;28;20111;-85
2023/07/17 11:21:17;;;;;;;1.60;1.05;;;25.60;55.70;;;;;;5055704;28;20048;-87
2023/07/17 11:24:01;;;;;;;1.67;1.15;;;25.60;55.70;;;;;;5038834;28;20036;-85
2023/07/17 11:26:29;;;;;;;2.45;1.17;;;25.60;55.80;;;;;;5056073;28;20028;-90
2023/07/17 11:28:59;;;;;;;2.55;1.20;;;25.60;55.70;;;;;;5023630;28;20044;-84
2023/07/17 11:31:28;;;;;;;1.63;1.10;;;25.60;55.70;;;;;;5039420;28;20033;-85
2023/07/17 11:34:00;;;;;;;1.30;1.20;;;25.60;55.70;;;;;;5055900;28;20516;-87
2023/07/17 11:36:28;;;;;;;1.33;1.05;;;25.60;55.70;;;;;;5054771;28;20036;-84
2023/07/17 11:39:20;;;;;;;1.65;1.20;;;25.60;55.70;;;;;;5055160;28;20029;-83
2023/07/17 11:41:57;;;;;;;2.17;1.08;;;25.70;55.80;;;;;;5037928;28;20036;-84
2023/07/17 11:44:24;;;;;;;2.35;1.30;;;25.70;55.80;;;;;;5039235;28;20090;-85
2023/07/17 11:47:04;;;;;;;1.95;1.35;;;25.70;55.80;;;;;;5055096;28;20064;-85
2023/07/17 11:49:32;;;;;;;1.55;1.15;;;25.70;55.90;;;;;;5055083;28;20032;-85
2023/07/17 11:51:58;;;;;;;0.90;0.90;;;25.70;55.90;;;;;;5058414;28;20036;-85
2023/07/17 11:54:41;;;;;;;1.70;1.02;;;25.70;55.80;;;;;;5025435;28;20473;-84
2023/07/17 11:57:08;;;;;;;1.08;0.95;;;25.70;55.90;;;;;;5058893;28;20028;-84
2023/07/17 11:59:37;;;;;;;2.20;1.23;;;25.70;55.90;;;;;;5058362;28;20027;-83
2023/07/17 12:02:03;;;;;;;1.25;1.00;;;25.70;55.90;;;;;;5058211;28;20041;-84
2023/07/17 12:04:40;;;;;;;1.70;1.17;;;25.70;55.90;;;;;;5076028;28;20528;-84
2023/07/17 12:07:15;;;;;;;1.27;1.10;;;25.70;55.90;;;;;;5059108;28;20062;-83
2023/07/17 12:09:41;;;;;;;1.55;1.17;;;25.80;56.00;;;;;;5060070;28;20051;-85
2023/07/17 12:12:07;;;;;;;1.13;1.02;;;25.80;56.00;;;;;;5058146;28;20477;-85
2023/07/17 12:14:36;;;;;;;1.88;1.23;;;25.80;56.00;;;;;;5058586;28;20033;-84
2023/07/17 12:17:02;;;;;;;1.08;0.90;;;25.80;56.00;;;;;;5058429;28;20029;-84
2023/07/17 12:19:28;;;;;;;1.40;1.08;;;25.80;56.00;;;;;;5058167;28;20021;-83
2023/07/17 12:21:54;;;;;;;1.13;1.00;;;25.80;56.00;;;;;;5041809;28;20032;-83
2023/07/17 12:24:20;;;;;;;2.17;1.40;;;25.80;56.00;;;;;;5041951;28;20130;-83
2023/07/17 12:26:45;;;;;;;2.03;1.60;;;25.80;56.00;;;;;;5029784;28;20074;-84
2023/07/17 12:29:11;;;;;;;1.63;1.17;;;25.80;56.00;;;;;;5068818;28;20032;-87
2023/07/17 12:31:37;;;;;;;1.52;1.00;;;25.80;55.90;;;;;;5059350;28;20092;-88
2023/07/17 12:34:03;;;;;;;2.13;1.33;;;25.80;56.00;;;;;;5077791;28;20492;-88
2023/07/17 12:36:29;;;;;;;1.60;1.30;;;25.80;56.00;;;;;;5062307;28;20030;-86
2023/07/17 12:39:14;;;;;;;2.92;1.58;;;25.80;56.00;;;;;;5059238;28;20024;-89
2023/07/17 12:41:43;;;;;;;1.40;1.13;;;25.80;56.70;;;;;;5086466;28;20027;-87
2023/07/17 12:44:10;;;;;;;2.38;1.38;;;25.80;56.00;;;;;;5063597;28;20028;-87
2023/07/17 12:46:36;;;;;;;2.83;1.45;;;25.80;56.00;;;;;;5059534;28;20036;-86
2023/07/17 12:49:01;;;;;;;2.03;1.30;;;25.80;56.00;;;;;;5009446;28;20047;-85